createdAt,value
2017-12-16T00:00:51.049Z,13.30
2017-12-16T00:01:51.024Z,15.90
2017-12-16T00:02:51.000Z,15.60
2017-12-16T00:03:50.968Z,12.80
2017-12-16T00:04:50.931Z,11.30
2017-12-16T00:05:51.249Z,11.60
2017-12-16T00:06:50.869Z,14.90
2017-12-16T00:07:50.834Z,16.50
2017-12-16T00:08:50.816Z,13.60
2017-12-16T00:09:50.774Z,13.50
2017-12-16T00:10:50.794Z,17.40
2017-12-16T00:11:50.717Z,16.80
2017-12-16T00:12:50.695Z,14.40
2017-12-16T00:13:50.659Z,16.60
2017-12-16T00:14:50.625Z,16.40
2017-12-16T00:15:50.595Z,17.30
2017-12-16T00:16:50.566Z,17.30
2017-12-16T00:17:50.831Z,16.80
2017-12-16T00:18:50.506Z,17.50
2017-12-16T00:19:50.473Z,17.90
2017-12-16T00:20:50.438Z,18.80
2017-12-16T00:21:50.406Z,19.30
2017-12-16T00:22:50.379Z,18.90
2017-12-16T00:23:50.346Z,19.00
2017-12-16T00:24:50.317Z,18.30
2017-12-16T00:25:50.291Z,18.50
2017-12-16T00:26:50.250Z,18.50
2017-12-16T00:27:50.219Z,20.50
2017-12-16T00:28:50.197Z,20.30
2017-12-16T00:29:50.167Z,19.80
2017-12-16T00:30:50.136Z,19.40
2017-12-16T00:31:50.111Z,19.40
2017-12-16T00:32:50.065Z,17.50
2017-12-16T00:33:50.042Z,18.70
2017-12-16T00:34:50.018Z,18.60
2017-12-16T00:35:49.980Z,18.10
2017-12-16T00:36:49.951Z,17.20
2017-12-16T00:37:49.912Z,15.30
2017-12-16T00:38:49.889Z,17.60
2017-12-16T00:39:49.857Z,20.00
2017-12-16T00:40:49.846Z,17.70
2017-12-16T00:41:49.798Z,20.80
2017-12-16T00:42:49.759Z,20.40
2017-12-16T00:43:49.749Z,20.80
2017-12-16T00:44:49.711Z,20.80
2017-12-16T00:45:49.677Z,22.50
2017-12-16T00:46:49.654Z,18.70
2017-12-16T00:47:49.621Z,18.20
2017-12-16T00:48:49.585Z,19.20
2017-12-16T00:49:49.547Z,19.20
2017-12-16T00:50:49.562Z,21.50
2017-12-16T00:51:49.488Z,20.90
2017-12-16T00:52:49.461Z,22.90
2017-12-16T00:53:49.434Z,22.60
2017-12-16T00:54:49.396Z,22.80
2017-12-16T00:55:49.370Z,19.20
2017-12-16T00:56:49.343Z,23.50
2017-12-16T00:57:49.304Z,24.60
2017-12-16T00:58:49.279Z,24.60
2017-12-16T00:59:49.238Z,26.80
2017-12-16T01:00:49.217Z,23.30
2017-12-16T01:01:49.188Z,22.50
2017-12-16T01:02:49.150Z,22.90
2017-12-16T01:03:49.427Z,27.40
2017-12-16T01:04:49.085Z,29.80
2017-12-16T01:05:49.061Z,23.60
2017-12-16T01:06:49.028Z,20.90
2017-12-16T01:07:48.999Z,23.30
2017-12-16T01:08:48.963Z,27.40
2017-12-16T01:09:48.939Z,27.00
2017-12-16T01:10:48.903Z,24.50
2017-12-16T01:11:48.882Z,25.20
2017-12-16T01:12:48.843Z,20.80
2017-12-16T01:13:48.816Z,20.50
2017-12-16T01:14:48.782Z,27.80
2017-12-16T01:15:48.750Z,25.60
2017-12-16T01:16:48.718Z,24.60
2017-12-16T01:17:48.698Z,24.90
2017-12-16T01:18:48.664Z,25.20
2017-12-16T01:19:48.640Z,21.30
2017-12-16T01:20:48.596Z,25.00
2017-12-16T01:21:48.864Z,23.60
2017-12-16T01:22:48.545Z,23.70
2017-12-16T01:23:48.502Z,28.50
2017-12-16T01:24:48.464Z,23.40
2017-12-16T01:25:48.433Z,24.40
2017-12-16T01:26:48.401Z,20.40
2017-12-16T01:27:48.376Z,24.30
2017-12-16T01:28:48.343Z,23.90
2017-12-16T01:29:48.314Z,21.90
2017-12-16T01:30:48.287Z,18.10
2017-12-16T01:31:48.261Z,21.10
2017-12-16T01:32:48.227Z,22.50
2017-12-16T01:33:48.195Z,17.50
2017-12-16T01:34:48.159Z,17.50
2017-12-16T01:35:48.133Z,18.40
2017-12-16T01:36:48.101Z,22.00
2017-12-16T01:37:48.069Z,22.70
2017-12-16T01:38:48.036Z,21.30
2017-12-16T01:39:48.004Z,23.60
2017-12-16T01:40:47.985Z,25.40
2017-12-16T01:41:47.941Z,22.40
2017-12-16T01:42:47.909Z,23.20
2017-12-16T01:43:47.878Z,27.40
2017-12-16T01:44:47.846Z,25.30
2017-12-16T01:45:47.818Z,23.20
2017-12-16T01:46:47.794Z,24.30
2017-12-16T01:47:47.762Z,21.10
2017-12-16T01:48:47.720Z,21.70
2017-12-16T01:49:47.685Z,21.30
2017-12-16T01:50:47.667Z,23.00
2017-12-16T01:51:47.625Z,24.80
2017-12-16T01:52:47.611Z,24.00
2017-12-16T01:53:47.574Z,25.90
2017-12-16T01:54:47.532Z,27.60
2017-12-16T01:55:47.500Z,24.30
2017-12-16T01:56:47.483Z,22.20
2017-12-16T01:57:47.700Z,21.00
2017-12-16T01:58:47.417Z,21.80
2017-12-16T01:59:47.391Z,22.70
2017-12-16T02:00:47.344Z,24.20
2017-12-16T02:01:47.319Z,19.00
2017-12-16T02:02:47.293Z,26.40
2017-12-16T02:03:47.267Z,29.00
2017-12-16T02:04:47.222Z,23.90
2017-12-16T02:05:47.205Z,22.40
2017-12-16T02:06:47.165Z,25.30
2017-12-16T02:07:47.133Z,26.80
2017-12-16T02:08:47.111Z,25.10
2017-12-16T02:09:47.368Z,26.20
2017-12-16T02:10:47.038Z,27.20
2017-12-16T02:11:47.019Z,26.00
2017-12-16T02:12:46.982Z,27.10
2017-12-16T02:13:46.956Z,26.60
2017-12-16T02:14:46.912Z,25.80
2017-12-16T02:15:46.889Z,26.90
2017-12-16T02:16:46.850Z,24.30
2017-12-16T02:17:46.823Z,23.90
2017-12-16T02:18:46.790Z,28.20
2017-12-16T02:19:46.757Z,28.00
2017-12-16T02:20:46.734Z,24.10
2017-12-16T02:21:46.706Z,26.10
2017-12-16T02:22:46.673Z,24.60
2017-12-16T02:23:46.640Z,30.80
2017-12-16T02:24:46.607Z,28.10
2017-12-16T02:25:46.573Z,29.10
2017-12-16T02:26:46.539Z,30.90
2017-12-16T02:27:46.514Z,30.70
2017-12-16T02:28:46.477Z,32.40
2017-12-16T02:29:46.444Z,28.80
2017-12-16T02:30:46.421Z,29.30
2017-12-16T02:31:46.389Z,29.30
2017-12-16T02:32:46.350Z,29.70
2017-12-16T02:33:46.333Z,27.10
2017-12-16T02:34:46.296Z,28.60
2017-12-16T02:35:46.269Z,30.60
2017-12-16T02:36:46.227Z,32.20
2017-12-16T02:37:46.205Z,30.00
2017-12-16T02:38:46.166Z,33.90
2017-12-16T02:39:46.128Z,30.20
2017-12-16T02:40:46.104Z,29.70
2017-12-16T02:41:46.073Z,32.20
2017-12-16T02:42:46.044Z,27.50
2017-12-16T02:43:46.007Z,26.10
2017-12-16T02:44:45.977Z,29.10
2017-12-16T02:45:45.944Z,27.20
2017-12-16T02:46:45.912Z,31.30
2017-12-16T02:47:45.895Z,30.00
2017-12-16T02:48:45.845Z,29.00
2017-12-16T02:49:45.811Z,28.30
2017-12-16T02:50:45.793Z,18.40
2017-12-16T02:51:45.761Z,26.70
2017-12-16T02:52:45.734Z,27.50
2017-12-16T02:53:45.695Z,30.40
2017-12-16T02:54:45.660Z,28.30
2017-12-16T02:55:45.624Z,29.70
2017-12-16T02:56:45.607Z,29.30
2017-12-16T02:57:45.864Z,32.30
2017-12-16T02:58:45.535Z,27.80
2017-12-16T02:59:45.506Z,32.90
2017-12-16T03:00:45.470Z,34.60
2017-12-16T03:01:45.442Z,32.60
2017-12-16T03:02:45.414Z,29.80
2017-12-16T03:03:45.384Z,27.20
2017-12-16T03:04:45.345Z,32.70
2017-12-16T03:05:45.311Z,33.90
2017-12-16T03:06:45.287Z,32.80
2017-12-16T03:07:45.261Z,34.40
2017-12-16T03:08:45.227Z,34.00
2017-12-16T03:09:45.539Z,30.90
2017-12-16T03:10:45.189Z,33.30
2017-12-16T03:11:45.128Z,29.80
2017-12-16T03:12:45.095Z,29.60
2017-12-16T03:13:45.060Z,33.10
2017-12-16T03:14:45.023Z,23.80
2017-12-16T03:15:45.003Z,34.40
2017-12-16T03:16:44.969Z,34.40
2017-12-16T03:17:44.941Z,32.10
2017-12-16T03:18:44.906Z,35.60
2017-12-16T03:19:44.872Z,31.50
2017-12-16T03:20:44.841Z,31.60
2017-12-16T03:21:44.810Z,32.00
2017-12-16T03:22:44.785Z,29.40
2017-12-16T03:23:44.757Z,28.20
2017-12-16T03:24:44.709Z,29.30
2017-12-16T03:25:44.680Z,28.20
2017-12-16T03:26:44.659Z,31.50
2017-12-16T03:27:44.616Z,30.40
2017-12-16T03:28:44.599Z,30.50
2017-12-16T03:29:44.565Z,32.40
2017-12-16T03:30:44.521Z,34.30
2017-12-16T03:31:44.497Z,34.20
2017-12-16T03:32:44.478Z,30.30
2017-12-16T03:33:44.780Z,30.50
2017-12-16T03:34:44.412Z,31.50
2017-12-16T03:35:44.374Z,29.80
2017-12-16T03:36:44.346Z,25.90
2017-12-16T03:37:44.308Z,31.60
2017-12-16T03:38:44.280Z,27.40
2017-12-16T03:39:44.549Z,29.40
2017-12-16T03:40:44.218Z,25.20
2017-12-16T03:41:44.186Z,24.10
2017-12-16T03:42:44.155Z,28.30
2017-12-16T03:43:44.121Z,24.00
2017-12-16T03:44:44.084Z,24.90
2017-12-16T03:45:44.051Z,22.20
2017-12-16T03:46:44.030Z,22.20
2017-12-16T03:47:44.002Z,25.40
2017-12-16T03:48:43.963Z,21.60
2017-12-16T03:49:43.925Z,26.90
2017-12-16T03:50:43.898Z,23.80
2017-12-16T03:51:43.862Z,26.70
2017-12-16T03:52:43.841Z,23.90
2017-12-16T03:53:43.808Z,23.00
2017-12-16T03:54:43.774Z,26.00
2017-12-16T03:55:43.738Z,20.90
2017-12-16T03:56:43.709Z,23.60
2017-12-16T03:57:43.685Z,23.10
2017-12-16T03:58:43.651Z,27.60
2017-12-16T03:59:43.625Z,25.70
2017-12-16T04:00:43.580Z,20.50
2017-12-16T04:01:43.558Z,24.00
2017-12-16T04:02:43.529Z,23.10
2017-12-16T04:03:43.501Z,24.70
2017-12-16T04:04:43.465Z,24.20
2017-12-16T04:05:43.438Z,24.00
2017-12-16T04:06:43.400Z,23.40
2017-12-16T04:07:43.372Z,20.90
2017-12-16T04:08:43.340Z,22.10
2017-12-16T04:09:43.313Z,18.90
2017-12-16T04:10:43.273Z,21.00
2017-12-16T04:11:43.236Z,23.50
2017-12-16T04:12:43.209Z,20.20
2017-12-16T04:13:43.185Z,23.70
2017-12-16T04:14:43.145Z,24.50
2017-12-16T04:15:43.413Z,27.40
2017-12-16T04:16:43.081Z,19.10
2017-12-16T04:17:43.047Z,25.20
2017-12-16T04:18:43.028Z,27.00
2017-12-16T04:19:42.990Z,25.60
2017-12-16T04:20:42.964Z,26.10
2017-12-16T04:21:43.178Z,25.10
2017-12-16T04:22:42.896Z,24.80
2017-12-16T04:23:42.864Z,24.70
2017-12-16T04:24:42.842Z,27.90
2017-12-16T04:25:42.807Z,25.20
2017-12-16T04:26:42.763Z,24.20
2017-12-16T04:27:42.735Z,24.70
2017-12-16T04:28:42.706Z,23.30
2017-12-16T04:29:42.687Z,22.90
2017-12-16T04:30:42.644Z,24.30
2017-12-16T04:31:42.616Z,22.90
2017-12-16T04:32:42.582Z,24.40
2017-12-16T04:33:42.551Z,24.80
2017-12-16T04:34:42.523Z,28.00
2017-12-16T04:35:42.495Z,26.50
2017-12-16T04:36:42.462Z,25.00
2017-12-16T04:37:42.431Z,25.70
2017-12-16T04:38:42.390Z,25.50
2017-12-16T04:39:42.362Z,22.60
2017-12-16T04:40:42.337Z,24.30
2017-12-16T04:41:42.305Z,21.00
2017-12-16T04:42:42.266Z,23.00
2017-12-16T04:43:42.233Z,24.70
2017-12-16T04:44:42.212Z,22.00
2017-12-16T04:45:42.179Z,25.60
2017-12-16T04:46:42.148Z,24.00
2017-12-16T04:47:42.118Z,18.70
2017-12-16T04:48:42.081Z,23.30
2017-12-16T04:49:42.048Z,25.20
2017-12-16T04:50:42.369Z,22.60
2017-12-16T04:51:41.985Z,20.60
2017-12-16T04:52:41.964Z,26.10
2017-12-16T04:53:41.922Z,25.40
2017-12-16T04:54:41.894Z,25.80
2017-12-16T04:55:41.858Z,26.10
2017-12-16T04:56:42.179Z,24.30
2017-12-16T04:57:41.797Z,24.70
2017-12-16T04:58:41.773Z,25.00
2017-12-16T04:59:41.737Z,26.40
2017-12-16T05:00:41.701Z,24.80
2017-12-16T05:01:41.668Z,24.50
2017-12-16T05:02:41.644Z,23.40
2017-12-16T05:03:41.607Z,24.20
2017-12-16T05:04:41.570Z,26.20
2017-12-16T05:05:41.546Z,26.60
2017-12-16T05:06:41.519Z,26.20
2017-12-16T05:07:41.486Z,27.70
2017-12-16T05:08:41.464Z,23.90
2017-12-16T05:09:41.417Z,27.40
2017-12-16T05:10:41.395Z,27.20
2017-12-16T05:11:41.359Z,26.80
2017-12-16T05:12:41.329Z,25.30
2017-12-16T05:13:41.601Z,27.20
2017-12-16T05:14:41.267Z,26.20
2017-12-16T05:15:41.235Z,24.60
2017-12-16T05:16:41.207Z,26.80
2017-12-16T05:17:41.168Z,24.60
2017-12-16T05:18:41.143Z,26.70
2017-12-16T05:19:41.109Z,19.80
2017-12-16T05:20:41.083Z,24.90
2017-12-16T05:21:41.045Z,27.70
2017-12-16T05:22:41.024Z,28.20
2017-12-16T05:23:40.986Z,26.10
2017-12-16T05:24:40.955Z,25.90
2017-12-16T05:25:41.229Z,24.20
2017-12-16T05:26:40.894Z,23.10
2017-12-16T05:27:40.854Z,27.90
2017-12-16T05:28:40.834Z,27.50
2017-12-16T05:29:40.803Z,26.00
2017-12-16T05:30:40.756Z,27.10
2017-12-16T05:31:40.731Z,20.10
2017-12-16T05:32:40.698Z,25.70
2017-12-16T05:33:40.673Z,23.90
2017-12-16T05:34:40.637Z,25.00
2017-12-16T05:35:40.609Z,25.60
2017-12-16T05:36:40.577Z,26.60
2017-12-16T05:37:40.543Z,26.30
2017-12-16T05:38:40.512Z,27.20
2017-12-16T05:39:40.480Z,24.80
2017-12-16T05:40:40.455Z,22.10
2017-12-16T05:41:40.414Z,25.30
2017-12-16T05:42:40.378Z,25.30
2017-12-16T05:43:40.603Z,28.00
2017-12-16T05:44:40.325Z,26.30
2017-12-16T05:45:40.302Z,23.40
2017-12-16T05:46:40.259Z,24.90
2017-12-16T05:47:40.238Z,24.60
2017-12-16T05:48:40.198Z,23.80
2017-12-16T05:49:40.516Z,24.10
2017-12-16T05:50:40.140Z,23.10
2017-12-16T05:51:40.101Z,26.10
2017-12-16T05:52:40.083Z,28.40
2017-12-16T05:53:40.045Z,26.60
2017-12-16T05:54:40.002Z,27.50
2017-12-16T05:55:39.980Z,24.80
2017-12-16T05:56:39.944Z,18.80
2017-12-16T05:57:39.910Z,24.10
2017-12-16T05:58:39.886Z,24.50
2017-12-16T05:59:39.856Z,26.90
2017-12-16T06:00:39.813Z,27.10
2017-12-16T06:01:39.790Z,27.10
2017-12-16T06:02:39.754Z,25.10
2017-12-16T06:03:39.730Z,27.40
2017-12-16T06:04:39.688Z,26.70
2017-12-16T06:05:39.661Z,25.00
2017-12-16T06:06:39.632Z,24.10
2017-12-16T06:07:39.596Z,25.00
2017-12-16T06:08:39.569Z,28.20
2017-12-16T06:09:39.534Z,23.10
2017-12-16T06:10:39.508Z,23.50
2017-12-16T06:11:39.472Z,24.00
2017-12-16T06:12:39.441Z,18.40
2017-12-16T06:13:39.714Z,26.60
2017-12-16T06:14:39.378Z,28.60
2017-12-16T06:15:39.343Z,25.60
2017-12-16T06:16:39.316Z,24.20
2017-12-16T06:17:39.286Z,24.30
2017-12-16T06:18:39.257Z,25.80
2017-12-16T06:19:39.579Z,27.10
2017-12-16T06:20:39.185Z,23.90
2017-12-16T06:21:39.150Z,26.20
2017-12-16T06:22:39.123Z,25.00
2017-12-16T06:23:39.087Z,24.80
2017-12-16T06:24:39.068Z,25.40
2017-12-16T06:25:39.334Z,22.70
2017-12-16T06:26:39.001Z,24.40
2017-12-16T06:27:38.961Z,27.60
2017-12-16T06:28:38.942Z,25.30
2017-12-16T06:29:38.901Z,27.00
2017-12-16T06:30:38.874Z,29.40
2017-12-16T06:31:38.840Z,27.90
2017-12-16T06:32:38.859Z,25.40
2017-12-16T06:33:38.782Z,27.90
2017-12-16T06:34:38.744Z,22.20
2017-12-16T06:35:38.727Z,24.70
2017-12-16T06:36:38.882Z,25.70
2017-12-16T06:37:38.655Z,23.80
2017-12-16T06:38:38.615Z,23.50
2017-12-16T06:39:38.593Z,23.60
2017-12-16T06:40:38.569Z,24.40
2017-12-16T06:41:38.540Z,23.20
2017-12-16T06:42:38.491Z,24.10
2017-12-16T06:43:38.464Z,23.90
2017-12-16T06:44:38.437Z,22.20
2017-12-16T06:45:38.403Z,17.50
2017-12-16T06:46:38.375Z,23.50
2017-12-16T06:47:38.346Z,22.40
2017-12-16T06:48:38.300Z,24.90
2017-12-16T06:49:38.270Z,26.10
2017-12-16T06:50:38.250Z,22.40
2017-12-16T06:51:38.208Z,20.90
2017-12-16T06:52:38.184Z,23.50
2017-12-16T06:53:38.142Z,21.30
2017-12-16T06:54:38.118Z,23.00
2017-12-16T06:55:38.089Z,21.40
2017-12-16T06:56:38.058Z,24.10
2017-12-16T06:57:38.029Z,24.20
2017-12-16T06:58:37.990Z,23.60
2017-12-16T06:59:37.952Z,21.10
2017-12-16T07:00:37.927Z,20.80
2017-12-16T07:01:38.245Z,20.60
2017-12-16T07:02:37.865Z,20.10
2017-12-16T07:03:37.834Z,18.70
2017-12-16T07:04:37.794Z,22.20
2017-12-16T07:05:37.769Z,21.80
2017-12-16T07:06:37.735Z,24.00
2017-12-16T07:07:37.704Z,22.10
2017-12-16T07:08:37.670Z,24.60
2017-12-16T07:09:37.645Z,22.90
2017-12-16T07:10:37.604Z,21.90
2017-12-16T07:11:37.573Z,24.60
2017-12-16T07:12:37.553Z,20.70
2017-12-16T07:13:37.516Z,24.50
2017-12-16T07:14:37.480Z,24.60
2017-12-16T07:15:37.456Z,26.30
2017-12-16T07:16:37.434Z,23.50
2017-12-16T07:17:37.402Z,25.70
2017-12-16T07:18:37.363Z,24.30
2017-12-16T07:19:37.633Z,26.40
2017-12-16T07:20:37.304Z,25.60
2017-12-16T07:21:37.263Z,26.90
2017-12-16T07:22:37.235Z,25.80
2017-12-16T07:23:37.211Z,25.90
2017-12-16T07:24:37.172Z,26.00
2017-12-16T07:25:37.135Z,26.40
2017-12-16T07:26:37.111Z,26.30
2017-12-16T07:27:37.072Z,26.00
2017-12-16T07:28:37.057Z,25.70
2017-12-16T07:29:37.020Z,25.60
2017-12-16T07:30:36.985Z,23.50
2017-12-16T07:31:36.950Z,26.40
2017-12-16T07:32:36.937Z,26.70
2017-12-16T07:33:36.887Z,24.70
2017-12-16T07:34:36.854Z,26.20
2017-12-16T07:35:36.831Z,24.20
2017-12-16T07:36:36.795Z,25.50
2017-12-16T07:37:36.769Z,24.70
2017-12-16T07:38:36.729Z,26.30
2017-12-16T07:39:36.713Z,26.10
2017-12-16T07:40:36.674Z,25.40
2017-12-16T07:41:36.640Z,23.90
2017-12-16T07:42:36.608Z,26.20
2017-12-16T07:43:36.573Z,25.10
2017-12-16T07:44:36.551Z,25.90
2017-12-16T07:45:36.513Z,25.70
2017-12-16T07:46:36.484Z,22.40
2017-12-16T07:47:36.453Z,26.80
2017-12-16T07:48:36.775Z,25.00
2017-12-16T07:49:36.398Z,25.20
2017-12-16T07:50:36.368Z,24.80
2017-12-16T07:51:36.325Z,25.10
2017-12-16T07:52:36.295Z,25.90
2017-12-16T07:53:36.267Z,22.90
2017-12-16T07:54:36.228Z,23.20
2017-12-16T07:55:36.195Z,24.40
2017-12-16T07:56:36.176Z,22.50
2017-12-16T07:57:36.141Z,24.70
2017-12-16T07:58:36.112Z,24.70
2017-12-16T07:59:36.082Z,26.60
2017-12-16T08:00:36.037Z,24.00
2017-12-16T08:01:36.007Z,23.80
2017-12-16T08:02:35.981Z,21.70
2017-12-16T08:03:35.947Z,24.40
2017-12-16T08:04:35.912Z,23.40
2017-12-16T08:05:35.879Z,21.90
2017-12-16T08:06:36.148Z,24.10
2017-12-16T08:07:35.822Z,20.80
2017-12-16T08:08:35.793Z,21.10
2017-12-16T08:09:35.765Z,23.30
2017-12-16T08:10:35.736Z,23.60
2017-12-16T08:11:35.694Z,23.80
2017-12-16T08:12:35.664Z,21.10
2017-12-16T08:13:35.632Z,22.50
2017-12-16T08:14:35.602Z,25.50
2017-12-16T08:15:35.572Z,26.20
2017-12-16T08:16:35.539Z,27.80
2017-12-16T08:17:35.505Z,22.60
2017-12-16T08:18:35.478Z,24.70
2017-12-16T08:19:35.441Z,25.80
2017-12-16T08:20:35.406Z,25.40
2017-12-16T08:21:35.379Z,25.60
2017-12-16T08:22:35.350Z,25.40
2017-12-16T08:23:35.313Z,24.50
2017-12-16T08:24:35.287Z,25.50
2017-12-16T08:25:35.258Z,25.90
2017-12-16T08:26:35.224Z,24.90
2017-12-16T08:27:35.193Z,25.70
2017-12-16T08:28:35.164Z,22.80
2017-12-16T08:29:35.125Z,22.90
2017-12-16T08:30:35.098Z,23.10
2017-12-16T08:31:35.068Z,22.30
2017-12-16T08:32:35.026Z,25.60
2017-12-16T08:33:35.001Z,25.70
2017-12-16T08:34:34.974Z,22.70
2017-12-16T08:35:34.940Z,24.10
2017-12-16T08:36:34.903Z,24.40
2017-12-16T08:37:34.878Z,26.10
2017-12-16T08:38:34.835Z,24.90
2017-12-16T08:39:34.803Z,22.10
2017-12-16T08:40:34.781Z,19.70
2017-12-16T08:41:34.744Z,23.50
2017-12-16T08:42:34.709Z,23.50
2017-12-16T08:43:34.687Z,22.60
2017-12-16T08:44:34.657Z,22.40
2017-12-16T08:45:34.618Z,22.70
2017-12-16T08:46:34.586Z,24.20
2017-12-16T08:47:34.562Z,23.00
2017-12-16T08:48:34.530Z,22.90
2017-12-16T08:49:34.490Z,21.50
2017-12-16T08:50:34.468Z,20.90
2017-12-16T08:51:34.437Z,22.60
2017-12-16T08:52:34.405Z,21.30
2017-12-16T08:53:34.361Z,22.40
2017-12-16T08:54:34.598Z,20.50
2017-12-16T08:55:34.305Z,19.60
2017-12-16T08:56:34.283Z,20.90
2017-12-16T08:57:34.247Z,18.30
2017-12-16T08:58:34.213Z,21.20
2017-12-16T08:59:34.196Z,21.50
2017-12-16T09:00:34.148Z,20.20
2017-12-16T09:01:34.127Z,18.70
2017-12-16T09:02:34.091Z,20.60
2017-12-16T09:03:34.068Z,20.40
2017-12-16T09:04:34.028Z,20.80
2017-12-16T09:05:33.988Z,20.90
2017-12-16T09:06:33.976Z,21.20
2017-12-16T09:07:33.939Z,21.00
2017-12-16T09:08:33.898Z,20.40
2017-12-16T09:09:33.874Z,20.00
2017-12-16T09:10:33.838Z,19.90
2017-12-16T09:11:33.808Z,18.50
2017-12-16T09:12:33.782Z,18.70
2017-12-16T09:13:33.748Z,18.40
2017-12-16T09:14:33.709Z,19.90
2017-12-16T09:15:33.699Z,20.10
2017-12-16T09:16:33.653Z,18.10
2017-12-16T09:17:33.621Z,20.60
2017-12-16T09:18:33.590Z,20.00
2017-12-16T09:19:33.566Z,18.50
2017-12-16T09:20:33.526Z,18.50
2017-12-16T09:21:33.496Z,18.50
2017-12-16T09:22:33.471Z,16.10
2017-12-16T09:23:33.443Z,15.30
2017-12-16T09:24:33.654Z,15.50
2017-12-16T09:25:33.373Z,16.50
2017-12-16T09:26:33.352Z,15.30
2017-12-16T09:27:33.316Z,14.40
2017-12-16T09:28:33.286Z,15.90
2017-12-16T09:29:33.256Z,14.70
2017-12-16T09:30:33.231Z,16.20
2017-12-16T09:31:33.205Z,14.80
2017-12-16T09:32:33.166Z,15.20
2017-12-16T09:33:33.142Z,13.20
2017-12-16T09:34:33.137Z,15.70
2017-12-16T09:35:33.088Z,13.90
2017-12-16T09:36:33.348Z,13.90
2017-12-16T09:37:33.022Z,14.80
2017-12-16T09:38:32.991Z,12.90
2017-12-16T09:39:32.967Z,16.20
2017-12-16T09:40:32.937Z,13.60
2017-12-16T09:41:32.902Z,14.20
2017-12-16T09:42:32.865Z,14.70
2017-12-16T09:43:32.838Z,15.30
2017-12-16T09:44:32.820Z,15.40
2017-12-16T09:45:32.788Z,15.60
2017-12-16T09:46:32.754Z,13.50
2017-12-16T09:47:32.718Z,14.50
2017-12-16T09:48:32.701Z,15.00
2017-12-16T09:49:32.673Z,14.40
2017-12-16T09:50:32.637Z,13.00
2017-12-16T09:51:32.608Z,11.90
2017-12-16T09:52:32.576Z,13.40
2017-12-16T09:53:32.536Z,13.70
2017-12-16T09:54:32.518Z,15.10
2017-12-16T09:55:32.490Z,13.40
2017-12-16T09:56:32.460Z,12.10
2017-12-16T09:57:32.423Z,11.70
2017-12-16T09:58:32.390Z,10.80
2017-12-16T09:59:32.718Z,11.70
2017-12-16T10:00:32.330Z,12.00
2017-12-16T10:01:32.303Z,11.60
2017-12-16T10:02:32.274Z,11.40
2017-12-16T10:03:32.241Z,11.70
2017-12-16T10:04:32.213Z,11.50
2017-12-16T10:05:32.433Z,11.10
2017-12-16T10:06:32.154Z,11.10
2017-12-16T10:07:32.126Z,10.90
2017-12-16T10:08:32.091Z,11.40
2017-12-16T10:09:32.074Z,10.00
2017-12-16T10:10:32.048Z,9.70
2017-12-16T10:11:32.014Z,10.90
2017-12-16T10:12:31.979Z,10.50
2017-12-16T10:13:31.945Z,10.00
2017-12-16T10:14:31.932Z,9.40
2017-12-16T10:15:31.898Z,11.10
2017-12-16T10:16:31.865Z,10.90
2017-12-16T10:17:31.837Z,11.40
2017-12-16T10:18:31.807Z,10.50
2017-12-16T10:19:31.780Z,10.70
2017-12-16T10:20:31.754Z,10.30
2017-12-16T10:21:31.728Z,10.20
2017-12-16T10:22:31.694Z,10.40
2017-12-16T10:23:32.013Z,10.30
2017-12-16T10:24:31.634Z,10.30
2017-12-16T10:25:31.605Z,9.60
2017-12-16T10:26:31.574Z,8.90
2017-12-16T10:27:31.559Z,9.40
2017-12-16T10:28:31.522Z,9.50
2017-12-16T10:29:31.486Z,9.10
2017-12-16T10:30:31.464Z,8.40
2017-12-16T10:31:31.437Z,9.20
2017-12-16T10:32:31.405Z,9.40
2017-12-16T10:33:31.382Z,9.70
2017-12-16T10:34:31.352Z,9.40
2017-12-16T10:35:31.321Z,9.10
2017-12-16T10:36:31.288Z,9.40
2017-12-16T10:37:31.265Z,9.10
2017-12-16T10:38:31.238Z,9.20
2017-12-16T10:39:31.216Z,9.00
2017-12-16T10:40:31.183Z,7.60
2017-12-16T10:41:31.144Z,7.50
2017-12-16T10:42:31.128Z,9.70
2017-12-16T10:43:31.098Z,8.70
2017-12-16T10:44:31.060Z,9.20
2017-12-16T10:45:31.035Z,8.60
2017-12-16T10:46:31.006Z,7.60
2017-12-16T10:47:30.978Z,7.10
2017-12-16T10:48:30.958Z,8.60
2017-12-16T10:49:30.925Z,8.50
2017-12-16T10:50:30.889Z,8.10
2017-12-16T10:51:30.872Z,10.00
2017-12-16T10:52:30.845Z,8.40
2017-12-16T10:53:30.811Z,9.40
2017-12-16T10:54:30.786Z,9.70
2017-12-16T10:55:30.752Z,10.10
2017-12-16T10:56:30.718Z,10.30
2017-12-16T10:57:30.693Z,8.90
2017-12-16T10:58:30.929Z,9.20
2017-12-16T10:59:30.645Z,9.10
2017-12-16T11:00:30.616Z,7.20
2017-12-16T11:01:30.588Z,8.40
2017-12-16T11:02:30.598Z,7.50
2017-12-16T11:03:30.521Z,6.80
2017-12-16T11:04:30.498Z,7.00
2017-12-16T11:05:30.481Z,7.60
2017-12-16T11:06:30.444Z,7.30
2017-12-16T11:07:30.416Z,7.40
2017-12-16T11:08:30.390Z,7.40
2017-12-16T11:09:30.362Z,6.70
2017-12-16T11:10:30.331Z,6.90
2017-12-16T11:11:30.299Z,6.80
2017-12-16T11:12:30.264Z,5.60
2017-12-16T11:13:30.236Z,6.10
2017-12-16T11:14:30.214Z,5.90
2017-12-16T11:15:30.180Z,5.40
2017-12-16T11:16:30.496Z,5.80
2017-12-16T11:17:30.123Z,5.80
2017-12-16T11:18:30.084Z,5.70
2017-12-16T11:19:30.053Z,4.60
2017-12-16T11:20:30.048Z,5.40
2017-12-16T11:21:30.004Z,4.60
2017-12-16T11:22:29.978Z,4.20
2017-12-16T11:23:29.945Z,4.50
2017-12-16T11:24:29.917Z,4.30
2017-12-16T11:25:29.889Z,4.40
2017-12-16T11:26:29.854Z,3.80
2017-12-16T11:27:29.823Z,4.50
2017-12-16T11:28:29.799Z,4.10
2017-12-16T11:29:29.762Z,4.00
2017-12-16T11:30:29.743Z,4.00
2017-12-16T11:31:29.714Z,4.30
2017-12-16T11:32:29.678Z,4.00
2017-12-16T11:33:29.654Z,3.80
2017-12-16T11:34:29.626Z,4.40
2017-12-16T11:35:29.594Z,4.80
2017-12-16T11:36:29.570Z,4.20
2017-12-16T11:37:29.545Z,4.10
2017-12-16T11:38:29.514Z,4.10
2017-12-16T11:39:29.488Z,3.80
2017-12-16T11:40:29.454Z,3.90
2017-12-16T11:41:29.439Z,3.70
2017-12-16T11:42:29.398Z,4.10
2017-12-16T11:43:29.376Z,4.90
2017-12-16T11:44:29.341Z,4.60
2017-12-16T11:45:29.317Z,4.40
2017-12-16T11:46:29.291Z,4.70
2017-12-16T11:47:29.260Z,4.60
2017-12-16T11:48:29.249Z,4.00
2017-12-16T11:49:29.214Z,4.30
2017-12-16T11:50:29.286Z,3.90
2017-12-16T11:51:29.152Z,4.30
2017-12-16T11:52:29.123Z,4.60
2017-12-16T11:53:29.103Z,4.20
2017-12-16T11:54:29.070Z,4.40
2017-12-16T11:55:29.037Z,4.20
2017-12-16T11:56:29.018Z,4.60
2017-12-16T11:57:28.993Z,4.60
2017-12-16T11:58:28.964Z,4.40
2017-12-16T11:59:28.929Z,4.40
2017-12-16T12:00:28.897Z,4.40
2017-12-16T12:01:28.885Z,4.60
2017-12-16T12:02:29.156Z,4.30
2017-12-16T12:03:28.830Z,3.80
2017-12-16T12:04:28.799Z,4.60
2017-12-16T12:05:28.774Z,4.20
2017-12-16T12:06:28.746Z,3.60
2017-12-16T12:07:28.716Z,4.00
2017-12-16T12:08:28.947Z,3.90
2017-12-16T12:09:28.659Z,3.40
2017-12-16T12:10:28.642Z,3.40
2017-12-16T12:11:28.608Z,3.50
2017-12-16T12:12:28.579Z,3.50
2017-12-16T12:13:28.561Z,3.40
2017-12-16T12:14:28.531Z,4.60
2017-12-16T12:15:28.507Z,3.80
2017-12-16T12:16:28.484Z,3.90
2017-12-16T12:17:28.456Z,3.40
2017-12-16T12:18:28.417Z,4.20
2017-12-16T12:19:28.391Z,3.90
2017-12-16T12:20:28.376Z,3.50
2017-12-16T12:21:28.354Z,3.80
2017-12-16T12:22:28.322Z,3.90
2017-12-16T12:23:28.296Z,3.90
2017-12-16T12:24:28.261Z,3.70
2017-12-16T12:25:28.230Z,3.60
2017-12-16T12:26:28.237Z,2.90
2017-12-16T12:27:28.188Z,3.30
2017-12-16T12:28:28.160Z,3.20
2017-12-16T12:29:28.124Z,3.50
2017-12-16T12:30:28.103Z,3.30
2017-12-16T12:31:28.425Z,3.40
2017-12-16T12:32:28.098Z,2.90
2017-12-16T12:33:28.024Z,3.00
2017-12-16T12:34:27.990Z,3.10
2017-12-16T12:35:27.960Z,2.90
2017-12-16T12:36:27.938Z,2.70
2017-12-16T12:37:28.218Z,2.70
2017-12-16T12:38:27.891Z,2.90
2017-12-16T12:39:27.858Z,2.70
2017-12-16T12:40:27.824Z,2.70
2017-12-16T12:41:27.801Z,2.80
2017-12-16T12:42:27.780Z,2.70
2017-12-16T12:43:27.758Z,2.60
2017-12-16T12:44:27.725Z,3.10
2017-12-16T12:45:27.691Z,2.50
2017-12-16T12:46:27.668Z,2.40
2017-12-16T12:47:27.643Z,2.80
2017-12-16T12:48:27.612Z,2.70
2017-12-16T12:49:27.583Z,3.10
2017-12-16T12:50:27.555Z,2.40
2017-12-16T12:51:27.525Z,2.40
2017-12-16T12:52:27.503Z,2.50
2017-12-16T12:53:27.468Z,2.40
2017-12-16T12:54:27.440Z,2.90
2017-12-16T12:55:27.420Z,2.40
2017-12-16T12:56:27.391Z,2.80
2017-12-16T12:57:27.350Z,2.40